sensor_id;sensor_type;location;lat;lon;timestamp;P1;durP1;ratioP1;P2;durP2;ratioP2
13568;SDS011;6856;51.460;7.158;2022-12-18T00:02:03;9.27;;;7.40;;
13568;SDS011;6856;51.460;7.158;2022-12-18T00:04:37;11.20;;;8.00;;
13568;SDS011;6856;51.460;7.158;2022-12-18T00:07:11;9.93;;;7.37;;
13568;SDS011;6856;51.460;7.158;2022-12-18T00:09:45;8.87;;;6.83;;
13568;SDS011;6856;51.460;7.158;2022-12-18T00:12:20;10.53;;;7.50;;
13568;SDS011;6856;51.460;7.158;2022-12-18T00:14:55;8.97;;;7.30;;
13568;SDS011;6856;51.460;7.158;2022-12-18T00:17:28;9.13;;;6.77;;
13568;SDS011;6856;51.460;7.158;2022-12-18T00:20:03;9.37;;;6.77;;
13568;SDS011;6856;51.460;7.158;2022-12-18T00:22:39;9.43;;;7.10;;
13568;SDS011;6856;51.460;7.158;2022-12-18T00:25:12;8.70;;;6.50;;
13568;SDS011;6856;51.460;7.158;2022-12-18T00:27:47;9.20;;;6.23;;
13568;SDS011;6856;51.460;7.158;2022-12-18T00:30:22;8.20;;;6.10;;
13568;SDS011;6856;51.460;7.158;2022-12-18T00:32:57;7.33;;;5.80;;
13568;SDS011;6856;51.460;7.158;2022-12-18T00:35:31;8.50;;;6.63;;
13568;SDS011;6856;51.460;7.158;2022-12-18T00:38:05;7.73;;;6.03;;
13568;SDS011;6856;51.460;7.158;2022-12-18T00:40:39;9.10;;;6.27;;
13568;SDS011;6856;51.460;7.158;2022-12-18T00:43:18;7.87;;;6.20;;
13568;SDS011;6856;51.460;7.158;2022-12-18T00:45:52;8.03;;;5.70;;
13568;SDS011;6856;51.460;7.158;2022-12-18T00:48:26;7.03;;;5.30;;
13568;SDS011;6856;51.460;7.158;2022-12-18T00:51:00;7.07;;;5.33;;
13568;SDS011;6856;51.460;7.158;2022-12-18T00:53:34;7.53;;;5.53;;
13568;SDS011;6856;51.460;7.158;2022-12-18T00:56:08;7.80;;;5.50;;
13568;SDS011;6856;51.460;7.158;2022-12-18T00:58:42;7.87;;;5.43;;
13568;SDS011;6856;51.460;7.158;2022-12-18T01:01:17;8.03;;;6.37;;
13568;SDS011;6856;51.460;7.158;2022-12-18T01:03:52;8.50;;;6.27;;
13568;SDS011;6856;51.460;7.158;2022-12-18T01:06:25;9.57;;;7.23;;
13568;SDS011;6856;51.460;7.158;2022-12-18T01:08:59;9.33;;;7.43;;
13568;SDS011;6856;51.460;7.158;2022-12-18T01:11:33;8.23;;;6.57;;
13568;SDS011;6856;51.460;7.158;2022-12-18T01:14:07;8.07;;;6.20;;
13568;SDS011;6856;51.460;7.158;2022-12-18T01:16:44;7.43;;;6.13;;
13568;SDS011;6856;51.460;7.158;2022-12-18T01:19:18;8.10;;;6.00;;
13568;SDS011;6856;51.460;7.158;2022-12-18T01:21:52;8.13;;;6.20;;
13568;SDS011;6856;51.460;7.158;2022-12-18T01:24:26;7.87;;;5.90;;
13568;SDS011;6856;51.460;7.158;2022-12-18T01:27:00;8.23;;;6.33;;
13568;SDS011;6856;51.460;7.158;2022-12-18T01:29:34;7.37;;;5.87;;
13568;SDS011;6856;51.460;7.158;2022-12-18T01:32:09;8.33;;;6.43;;
13568;SDS011;6856;51.460;7.158;2022-12-18T01:34:44;7.10;;;5.13;;
13568;SDS011;6856;51.460;7.158;2022-12-18T01:37:18;8.00;;;5.93;;
13568;SDS011;6856;51.460;7.158;2022-12-18T01:39:52;7.87;;;5.97;;
13568;SDS011;6856;51.460;7.158;2022-12-18T01:42:27;8.80;;;6.00;;
13568;SDS011;6856;51.460;7.158;2022-12-18T01:45:05;7.57;;;5.23;;
13568;SDS011;6856;51.460;7.158;2022-12-18T01:47:58;7.30;;;5.53;;
13568;SDS011;6856;51.460;7.158;2022-12-18T01:50:36;6.07;;;4.73;;
13568;SDS011;6856;51.460;7.158;2022-12-18T01:53:14;6.07;;;4.60;;
13568;SDS011;6856;51.460;7.158;2022-12-18T01:55:52;6.67;;;5.37;;
13568;SDS011;6856;51.460;7.158;2022-12-18T01:58:32;7.50;;;5.13;;
13568;SDS011;6856;51.460;7.158;2022-12-18T02:01:17;8.57;;;5.20;;
13568;SDS011;6856;51.460;7.158;2022-12-18T02:03:54;7.40;;;4.80;;
13568;SDS011;6856;51.460;7.158;2022-12-18T02:06:29;9.43;;;6.03;;
13568;SDS011;6856;51.460;7.158;2022-12-18T02:09:13;7.63;;;4.60;;
13568;SDS011;6856;51.460;7.158;2022-12-18T02:11:54;5.63;;;3.90;;
13568;SDS011;6856;51.460;7.158;2022-12-18T02:14:37;7.83;;;4.33;;
13568;SDS011;6856;51.460;7.158;2022-12-18T02:17:18;5.63;;;3.57;;
13568;SDS011;6856;51.460;7.158;2022-12-18T02:20:01;4.50;;;3.33;;
13568;SDS011;6856;51.460;7.158;2022-12-18T02:22:50;5.33;;;3.40;;
13568;SDS011;6856;51.460;7.158;2022-12-18T02:25:52;5.23;;;3.53;;
13568;SDS011;6856;51.460;7.158;2022-12-18T02:28:41;4.53;;;2.97;;
13568;SDS011;6856;51.460;7.158;2022-12-18T02:31:23;6.13;;;3.90;;
13568;SDS011;6856;51.460;7.158;2022-12-18T02:34:02;5.47;;;3.27;;
13568;SDS011;6856;51.460;7.158;2022-12-18T02:36:39;6.20;;;3.60;;
13568;SDS011;6856;51.460;7.158;2022-12-18T02:39:16;5.50;;;3.47;;
13568;SDS011;6856;51.460;7.158;2022-12-18T02:41:54;5.17;;;3.87;;
13568;SDS011;6856;51.460;7.158;2022-12-18T02:44:30;5.73;;;3.53;;
13568;SDS011;6856;51.460;7.158;2022-12-18T02:47:04;4.60;;;3.50;;
13568;SDS011;6856;51.460;7.158;2022-12-18T02:49:40;5.77;;;4.00;;
13568;SDS011;6856;51.460;7.158;2022-12-18T02:52:27;5.67;;;3.90;;
13568;SDS011;6856;51.460;7.158;2022-12-18T02:55:15;6.20;;;3.97;;
13568;SDS011;6856;51.460;7.158;2022-12-18T02:58:09;6.27;;;4.13;;
13568;SDS011;6856;51.460;7.158;2022-12-18T03:00:51;5.27;;;3.67;;
13568;SDS011;6856;51.460;7.158;2022-12-18T03:03:34;5.87;;;3.57;;
13568;SDS011;6856;51.460;7.158;2022-12-18T03:06:18;4.93;;;3.17;;
13568;SDS011;6856;51.460;7.158;2022-12-18T03:08:58;4.20;;;3.13;;
13568;SDS011;6856;51.460;7.158;2022-12-18T03:11:39;5.23;;;3.33;;
13568;SDS011;6856;51.460;7.158;2022-12-18T03:14:38;4.67;;;3.30;;
13568;SDS011;6856;51.460;7.158;2022-12-18T03:17:16;6.03;;;3.63;;
13568;SDS011;6856;51.460;7.158;2022-12-18T03:19:53;4.90;;;3.40;;
13568;SDS011;6856;51.460;7.158;2022-12-18T03:22:33;4.47;;;3.13;;
13568;SDS011;6856;51.460;7.158;2022-12-18T03:25:12;4.97;;;3.30;;
13568;SDS011;6856;51.460;7.158;2022-12-18T03:27:50;5.07;;;3.70;;
13568;SDS011;6856;51.460;7.158;2022-12-18T03:30:34;4.90;;;3.13;;
13568;SDS011;6856;51.460;7.158;2022-12-18T03:33:14;5.93;;;3.90;;
13568;SDS011;6856;51.460;7.158;2022-12-18T03:35:53;4.77;;;3.43;;
13568;SDS011;6856;51.460;7.158;2022-12-18T03:38:28;4.00;;;3.20;;
13568;SDS011;6856;51.460;7.158;2022-12-18T03:41:03;5.27;;;3.53;;
13568;SDS011;6856;51.460;7.158;2022-12-18T03:43:49;5.77;;;3.63;;
13568;SDS011;6856;51.460;7.158;2022-12-18T03:46:30;5.20;;;3.47;;
13568;SDS011;6856;51.460;7.158;2022-12-18T03:49:15;4.40;;;3.30;;
13568;SDS011;6856;51.460;7.158;2022-12-18T03:52:04;4.93;;;3.53;;
13568;SDS011;6856;51.460;7.158;2022-12-18T03:54:44;4.87;;;3.23;;
13568;SDS011;6856;51.460;7.158;2022-12-18T03:57:20;4.30;;;2.97;;
13568;SDS011;6856;51.460;7.158;2022-12-18T04:00:00;5.07;;;3.47;;
13568;SDS011;6856;51.460;7.158;2022-12-18T04:02:43;4.87;;;3.60;;
13568;SDS011;6856;51.460;7.158;2022-12-18T04:05:25;5.70;;;3.57;;
13568;SDS011;6856;51.460;7.158;2022-12-18T04:08:02;4.77;;;3.27;;
13568;SDS011;6856;51.460;7.158;2022-12-18T04:10:43;5.27;;;3.40;;
13568;SDS011;6856;51.460;7.158;2022-12-18T04:13:21;5.07;;;3.10;;
13568;SDS011;6856;51.460;7.158;2022-12-18T04:15:56;4.77;;;3.33;;
13568;SDS011;6856;51.460;7.158;2022-12-18T04:18:40;4.80;;;3.30;;
13568;SDS011;6856;51.460;7.158;2022-12-18T04:21:14;4.10;;;3.03;;
13568;SDS011;6856;51.460;7.158;2022-12-18T04:23:48;5.37;;;3.03;;
13568;SDS011;6856;51.460;7.158;2022-12-18T04:26:22;4.47;;;2.87;;
13568;SDS011;6856;51.460;7.158;2022-12-18T04:28:56;3.83;;;2.80;;
13568;SDS011;6856;51.460;7.158;2022-12-18T04:31:30;4.77;;;3.30;;
13568;SDS011;6856;51.460;7.158;2022-12-18T04:34:05;5.53;;;3.33;;
13568;SDS011;6856;51.460;7.158;2022-12-18T04:36:39;3.90;;;3.17;;
13568;SDS011;6856;51.460;7.158;2022-12-18T04:39:13;4.97;;;3.23;;
13568;SDS011;6856;51.460;7.158;2022-12-18T04:41:50;4.80;;;3.43;;
13568;SDS011;6856;51.460;7.158;2022-12-18T04:44:30;5.10;;;4.00;;
13568;SDS011;6856;51.460;7.158;2022-12-18T04:47:04;6.50;;;4.00;;
13568;SDS011;6856;51.460;7.158;2022-12-18T04:49:40;4.93;;;3.47;;
13568;SDS011;6856;51.460;7.158;2022-12-18T04:52:14;5.70;;;3.90;;
13568;SDS011;6856;51.460;7.158;2022-12-18T04:54:48;5.03;;;3.60;;
13568;SDS011;6856;51.460;7.158;2022-12-18T04:57:22;5.37;;;3.93;;
13568;SDS011;6856;51.460;7.158;2022-12-18T04:59:55;4.70;;;3.67;;
13568;SDS011;6856;51.460;7.158;2022-12-18T05:02:30;5.03;;;3.87;;
13568;SDS011;6856;51.460;7.158;2022-12-18T05:05:07;5.00;;;3.33;;
13568;SDS011;6856;51.460;7.158;2022-12-18T05:07:42;4.27;;;3.00;;
13568;SDS011;6856;51.460;7.158;2022-12-18T05:10:16;3.60;;;2.87;;
13568;SDS011;6856;51.460;7.158;2022-12-18T05:12:50;4.17;;;2.93;;
13568;SDS011;6856;51.460;7.158;2022-12-18T05:15:34;4.67;;;3.00;;
13568;SDS011;6856;51.460;7.158;2022-12-18T05:18:08;5.83;;;3.40;;
13568;SDS011;6856;51.460;7.158;2022-12-18T05:20:43;3.73;;;2.73;;
13568;SDS011;6856;51.460;7.158;2022-12-18T05:23:17;4.37;;;2.80;;
13568;SDS011;6856;51.460;7.158;2022-12-18T05:25:52;3.93;;;2.57;;
13568;SDS011;6856;51.460;7.158;2022-12-18T05:28:27;4.10;;;2.70;;
13568;SDS011;6856;51.460;7.158;2022-12-18T05:31:03;3.03;;;2.23;;
13568;SDS011;6856;51.460;7.158;2022-12-18T05:33:37;2.80;;;2.17;;
13568;SDS011;6856;51.460;7.158;2022-12-18T05:36:13;3.17;;;2.57;;
13568;SDS011;6856;51.460;7.158;2022-12-18T05:38:47;4.60;;;2.63;;
13568;SDS011;6856;51.460;7.158;2022-12-18T05:41:23;3.37;;;2.37;;
13568;SDS011;6856;51.460;7.158;2022-12-18T05:43:57;3.67;;;2.60;;
13568;SDS011;6856;51.460;7.158;2022-12-18T05:46:31;3.97;;;2.73;;
13568;SDS011;6856;51.460;7.158;2022-12-18T05:49:05;3.87;;;2.50;;
13568;SDS011;6856;51.460;7.158;2022-12-18T05:51:40;4.10;;;2.70;;
13568;SDS011;6856;51.460;7.158;2022-12-18T05:54:14;3.70;;;2.60;;
13568;SDS011;6856;51.460;7.158;2022-12-18T05:56:48;3.73;;;2.73;;
13568;SDS011;6856;51.460;7.158;2022-12-18T05:59:22;4.57;;;2.43;;
13568;SDS011;6856;51.460;7.158;2022-12-18T06:01:56;2.70;;;2.27;;
13568;SDS011;6856;51.460;7.158;2022-12-18T06:04:30;4.60;;;2.57;;
13568;SDS011;6856;51.460;7.158;2022-12-18T06:07:07;2.87;;;2.23;;
13568;SDS011;6856;51.460;7.158;2022-12-18T06:09:46;4.40;;;2.67;;
13568;SDS011;6856;51.460;7.158;2022-12-18T06:12:20;4.60;;;2.60;;
13568;SDS011;6856;51.460;7.158;2022-12-18T06:14:54;3.30;;;2.50;;
13568;SDS011;6856;51.460;7.158;2022-12-18T06:17:28;4.67;;;2.77;;
13568;SDS011;6856;51.460;7.158;2022-12-18T06:20:03;3.77;;;2.53;;
13568;SDS011;6856;51.460;7.158;2022-12-18T06:22:39;4.10;;;2.53;;
13568;SDS011;6856;51.460;7.158;2022-12-18T06:25:13;3.60;;;2.77;;
13568;SDS011;6856;51.460;7.158;2022-12-18T06:27:50;3.90;;;2.47;;
13568;SDS011;6856;51.460;7.158;2022-12-18T06:30:33;3.77;;;2.50;;
13568;SDS011;6856;51.460;7.158;2022-12-18T06:33:11;3.07;;;2.10;;
13568;SDS011;6856;51.460;7.158;2022-12-18T06:35:45;3.53;;;2.47;;
13568;SDS011;6856;51.460;7.158;2022-12-18T06:38:19;3.43;;;2.33;;
13568;SDS011;6856;51.460;7.158;2022-12-18T06:40:53;3.40;;;2.40;;
13568;SDS011;6856;51.460;7.158;2022-12-18T06:43:27;3.90;;;2.53;;
13568;SDS011;6856;51.460;7.158;2022-12-18T06:46:01;3.70;;;2.50;;
13568;SDS011;6856;51.460;7.158;2022-12-18T06:48:36;3.43;;;2.60;;
13568;SDS011;6856;51.460;7.158;2022-12-18T06:51:10;4.20;;;2.57;;
13568;SDS011;6856;51.460;7.158;2022-12-18T06:53:46;4.00;;;2.67;;
13568;SDS011;6856;51.460;7.158;2022-12-18T06:56:20;3.73;;;2.37;;
13568;SDS011;6856;51.460;7.158;2022-12-18T06:58:54;3.43;;;2.30;;
13568;SDS011;6856;51.460;7.158;2022-12-18T07:01:27;4.30;;;3.00;;
13568;SDS011;6856;51.460;7.158;2022-12-18T07:04:01;3.53;;;2.57;;
13568;SDS011;6856;51.460;7.158;2022-12-18T07:06:35;4.60;;;2.87;;
13568;SDS011;6856;51.460;7.158;2022-12-18T07:09:10;4.87;;;2.83;;
13568;SDS011;6856;51.460;7.158;2022-12-18T07:11:44;4.57;;;2.50;;
13568;SDS011;6856;51.460;7.158;2022-12-18T07:14:18;4.23;;;3.00;;
13568;SDS011;6856;51.460;7.158;2022-12-18T07:16:54;4.53;;;2.80;;
13568;SDS011;6856;51.460;7.158;2022-12-18T07:19:28;4.03;;;2.73;;
13568;SDS011;6856;51.460;7.158;2022-12-18T07:22:02;6.03;;;3.33;;
13568;SDS011;6856;51.460;7.158;2022-12-18T07:24:38;5.03;;;3.17;;
13568;SDS011;6856;51.460;7.158;2022-12-18T07:27:11;5.50;;;3.20;;
13568;SDS011;6856;51.460;7.158;2022-12-18T07:29:45;6.43;;;3.73;;
13568;SDS011;6856;51.460;7.158;2022-12-18T07:32:19;5.30;;;3.60;;
13568;SDS011;6856;51.460;7.158;2022-12-18T07:34:53;4.73;;;3.37;;
13568;SDS011;6856;51.460;7.158;2022-12-18T07:37:27;4.57;;;3.20;;
13568;SDS011;6856;51.460;7.158;2022-12-18T07:40:02;5.43;;;3.63;;
13568;SDS011;6856;51.460;7.158;2022-12-18T07:42:38;5.30;;;3.40;;
13568;SDS011;6856;51.460;7.158;2022-12-18T07:45:12;4.97;;;3.43;;
13568;SDS011;6856;51.460;7.158;2022-12-18T07:47:45;4.83;;;3.63;;
13568;SDS011;6856;51.460;7.158;2022-12-18T07:50:19;5.30;;;3.37;;
13568;SDS011;6856;51.460;7.158;2022-12-18T07:52:53;5.17;;;3.10;;
13568;SDS011;6856;51.460;7.158;2022-12-18T07:55:28;4.30;;;2.97;;
13568;SDS011;6856;51.460;7.158;2022-12-18T07:58:22;5.10;;;3.33;;
13568;SDS011;6856;51.460;7.158;2022-12-18T08:01:01;4.57;;;3.00;;
13568;SDS011;6856;51.460;7.158;2022-12-18T08:03:37;4.83;;;3.23;;
13568;SDS011;6856;51.460;7.158;2022-12-18T08:06:13;4.73;;;2.97;;
13568;SDS011;6856;51.460;7.158;2022-12-18T08:08:47;4.80;;;3.53;;
13568;SDS011;6856;51.460;7.158;2022-12-18T08:11:23;4.93;;;3.40;;
13568;SDS011;6856;51.460;7.158;2022-12-18T08:14:01;4.87;;;3.20;;
13568;SDS011;6856;51.460;7.158;2022-12-18T08:16:35;4.63;;;3.60;;
13568;SDS011;6856;51.460;7.158;2022-12-18T08:19:11;5.13;;;3.43;;
13568;SDS011;6856;51.460;7.158;2022-12-18T08:21:45;5.83;;;3.67;;
13568;SDS011;6856;51.460;7.158;2022-12-18T08:24:20;6.00;;;3.83;;
13568;SDS011;6856;51.460;7.158;2022-12-18T08:26:56;6.73;;;4.07;;
13568;SDS011;6856;51.460;7.158;2022-12-18T08:29:50;5.57;;;4.13;;
13568;SDS011;6856;51.460;7.158;2022-12-18T08:32:24;5.43;;;4.27;;
13568;SDS011;6856;51.460;7.158;2022-12-18T08:35:00;6.77;;;4.90;;
13568;SDS011;6856;51.460;7.158;2022-12-18T08:37:34;5.53;;;3.90;;
13568;SDS011;6856;51.460;7.158;2022-12-18T08:40:08;6.00;;;4.20;;
13568;SDS011;6856;51.460;7.158;2022-12-18T08:42:47;7.07;;;4.90;;
13568;SDS011;6856;51.460;7.158;2022-12-18T08:45:38;6.80;;;5.20;;
13568;SDS011;6856;51.460;7.158;2022-12-18T08:48:12;5.17;;;4.27;;
13568;SDS011;6856;51.460;7.158;2022-12-18T08:50:55;6.07;;;4.63;;
13568;SDS011;6856;51.460;7.158;2022-12-18T08:53:34;7.60;;;5.07;;
13568;SDS011;6856;51.460;7.158;2022-12-18T08:56:08;6.90;;;4.97;;
13568;SDS011;6856;51.460;7.158;2022-12-18T08:58:52;6.47;;;4.77;;
13568;SDS011;6856;51.460;7.158;2022-12-18T09:01:28;6.43;;;4.53;;
13568;SDS011;6856;51.460;7.158;2022-12-18T09:04:02;5.43;;;3.97;;
13568;SDS011;6856;51.460;7.158;2022-12-18T09:06:38;4.60;;;3.23;;
13568;SDS011;6856;51.460;7.158;2022-12-18T09:09:24;3.93;;;2.87;;
13568;SDS011;6856;51.460;7.158;2022-12-18T09:11:58;4.90;;;2.70;;
13568;SDS011;6856;51.460;7.158;2022-12-18T09:14:33;3.00;;;2.40;;
13568;SDS011;6856;51.460;7.158;2022-12-18T09:17:08;3.60;;;2.43;;
13568;SDS011;6856;51.460;7.158;2022-12-18T09:19:41;3.40;;;2.30;;
13568;SDS011;6856;51.460;7.158;2022-12-18T09:22:15;4.03;;;2.40;;
13568;SDS011;6856;51.460;7.158;2022-12-18T09:24:52;3.03;;;2.17;;
13568;SDS011;6856;51.460;7.158;2022-12-18T09:27:53;3.60;;;2.10;;
13568;SDS011;6856;51.460;7.158;2022-12-18T09:30:29;2.93;;;1.93;;
13568;SDS011;6856;51.460;7.158;2022-12-18T09:33:05;3.00;;;2.10;;
13568;SDS011;6856;51.460;7.158;2022-12-18T09:35:40;3.40;;;2.10;;
13568;SDS011;6856;51.460;7.158;2022-12-18T09:38:17;4.00;;;2.50;;
13568;SDS011;6856;51.460;7.158;2022-12-18T09:40:56;2.83;;;2.03;;
13568;SDS011;6856;51.460;7.158;2022-12-18T09:43:43;3.50;;;2.20;;
13568;SDS011;6856;51.460;7.158;2022-12-18T09:46:25;3.60;;;2.30;;
13568;SDS011;6856;51.460;7.158;2022-12-18T09:49:05;2.73;;;1.97;;
13568;SDS011;6856;51.460;7.158;2022-12-18T09:51:47;3.33;;;2.10;;
13568;SDS011;6856;51.460;7.158;2022-12-18T09:54:30;3.17;;;2.03;;
13568;SDS011;6856;51.460;7.158;2022-12-18T09:57:10;2.67;;;2.00;;
13568;SDS011;6856;51.460;7.158;2022-12-18T09:59:49;3.07;;;2.20;;
13568;SDS011;6856;51.460;7.158;2022-12-18T10:02:30;3.50;;;2.37;;
13568;SDS011;6856;51.460;7.158;2022-12-18T10:05:10;3.97;;;2.40;;
13568;SDS011;6856;51.460;7.158;2022-12-18T10:07:52;3.30;;;2.30;;
13568;SDS011;6856;51.460;7.158;2022-12-18T10:10:37;3.67;;;2.60;;
13568;SDS011;6856;51.460;7.158;2022-12-18T10:13:22;3.80;;;2.30;;
13568;SDS011;6856;51.460;7.158;2022-12-18T10:16:09;4.63;;;3.00;;
13568;SDS011;6856;51.460;7.158;2022-12-18T10:18:56;3.50;;;2.20;;
13568;SDS011;6856;51.460;7.158;2022-12-18T10:21:56;3.37;;;2.13;;
13568;SDS011;6856;51.460;7.158;2022-12-18T10:24:45;2.97;;;2.20;;
13568;SDS011;6856;51.460;7.158;2022-12-18T10:27:31;4.10;;;2.63;;
13568;SDS011;6856;51.460;7.158;2022-12-18T10:30:08;3.47;;;2.13;;
13568;SDS011;6856;51.460;7.158;2022-12-18T10:32:47;5.00;;;2.77;;
13568;SDS011;6856;51.460;7.158;2022-12-18T10:35:29;3.00;;;2.10;;
13568;SDS011;6856;51.460;7.158;2022-12-18T10:38:07;3.53;;;2.43;;
13568;SDS011;6856;51.460;7.158;2022-12-18T10:40:57;4.07;;;2.47;;
13568;SDS011;6856;51.460;7.158;2022-12-18T10:43:38;3.33;;;2.30;;
13568;SDS011;6856;51.460;7.158;2022-12-18T10:46:14;4.57;;;2.47;;
13568;SDS011;6856;51.460;7.158;2022-12-18T10:48:56;5.50;;;3.83;;
13568;SDS011;6856;51.460;7.158;2022-12-18T10:51:33;5.23;;;3.30;;
13568;SDS011;6856;51.460;7.158;2022-12-18T10:54:13;4.20;;;3.10;;
13568;SDS011;6856;51.460;7.158;2022-12-18T10:56:51;3.63;;;2.60;;
13568;SDS011;6856;51.460;7.158;2022-12-18T10:59:50;4.40;;;2.67;;
13568;SDS011;6856;51.460;7.158;2022-12-18T11:02:37;4.97;;;2.37;;
13568;SDS011;6856;51.460;7.158;2022-12-18T11:08:12;4.03;;;2.53;;
13568;SDS011;6856;51.460;7.158;2022-12-18T11:10:55;2.97;;;2.10;;
13568;SDS011;6856;51.460;7.158;2022-12-18T11:13:30;3.30;;;2.30;;
13568;SDS011;6856;51.460;7.158;2022-12-18T11:16:06;3.33;;;2.10;;
13568;SDS011;6856;51.460;7.158;2022-12-18T11:18:40;2.80;;;2.17;;
13568;SDS011;6856;51.460;7.158;2022-12-18T11:21:14;3.40;;;2.20;;
13568;SDS011;6856;51.460;7.158;2022-12-18T11:23:51;2.73;;;2.03;;
13568;SDS011;6856;51.460;7.158;2022-12-18T11:26:33;3.13;;;2.20;;
13568;SDS011;6856;51.460;7.158;2022-12-18T11:29:09;4.77;;;2.00;;
13568;SDS011;6856;51.460;7.158;2022-12-18T11:31:50;4.10;;;2.40;;
13568;SDS011;6856;51.460;7.158;2022-12-18T11:34:25;4.00;;;2.83;;
13568;SDS011;6856;51.460;7.158;2022-12-18T11:37:03;3.53;;;2.20;;
13568;SDS011;6856;51.460;7.158;2022-12-18T11:39:40;4.37;;;2.40;;
13568;SDS011;6856;51.460;7.158;2022-12-18T11:42:23;2.97;;;2.20;;
13568;SDS011;6856;51.460;7.158;2022-12-18T11:45:14;3.83;;;2.40;;
13568;SDS011;6856;51.460;7.158;2022-12-18T11:48:10;4.17;;;2.70;;
13568;SDS011;6856;51.460;7.158;2022-12-18T11:50:51;4.73;;;2.50;;
13568;SDS011;6856;51.460;7.158;2022-12-18T11:53:28;4.67;;;2.80;;
13568;SDS011;6856;51.460;7.158;2022-12-18T11:56:11;3.53;;;2.67;;
13568;SDS011;6856;51.460;7.158;2022-12-18T11:59:05;3.80;;;2.40;;
13568;SDS011;6856;51.460;7.158;2022-12-18T12:01:54;4.30;;;2.80;;
13568;SDS011;6856;51.460;7.158;2022-12-18T12:04:50;3.93;;;2.77;;
13568;SDS011;6856;51.460;7.158;2022-12-18T12:07:38;3.47;;;2.27;;
13568;SDS011;6856;51.460;7.158;2022-12-18T12:10:28;4.67;;;2.73;;
13568;SDS011;6856;51.460;7.158;2022-12-18T12:13:23;4.03;;;2.57;;
13568;SDS011;6856;51.460;7.158;2022-12-18T12:16:15;3.70;;;2.40;;
13568;SDS011;6856;51.460;7.158;2022-12-18T12:19:02;4.43;;;2.93;;
13568;SDS011;6856;51.460;7.158;2022-12-18T12:21:54;4.27;;;2.50;;
13568;SDS011;6856;51.460;7.158;2022-12-18T12:24:39;3.87;;;2.67;;
13568;SDS011;6856;51.460;7.158;2022-12-18T12:27:34;3.77;;;2.77;;
13568;SDS011;6856;51.460;7.158;2022-12-18T12:30:20;5.13;;;3.10;;
13568;SDS011;6856;51.460;7.158;2022-12-18T12:33:07;4.27;;;2.90;;
13568;SDS011;6856;51.460;7.158;2022-12-18T12:36:01;4.60;;;3.10;;
13568;SDS011;6856;51.460;7.158;2022-12-18T12:38:46;4.07;;;3.17;;
13568;SDS011;6856;51.460;7.158;2022-12-18T12:41:27;4.37;;;2.97;;
13568;SDS011;6856;51.460;7.158;2022-12-18T12:44:24;3.63;;;2.63;;
13568;SDS011;6856;51.460;7.158;2022-12-18T12:47:10;5.27;;;3.37;;
13568;SDS011;6856;51.460;7.158;2022-12-18T12:49:49;5.33;;;3.47;;
13568;SDS011;6856;51.460;7.158;2022-12-18T12:52:28;5.70;;;3.90;;
13568;SDS011;6856;51.460;7.158;2022-12-18T12:55:13;4.97;;;3.43;;
13568;SDS011;6856;51.460;7.158;2022-12-18T12:57:56;5.87;;;3.97;;
13568;SDS011;6856;51.460;7.158;2022-12-18T13:00:41;6.77;;;3.70;;
13568;SDS011;6856;51.460;7.158;2022-12-18T13:03:30;5.33;;;3.50;;
13568;SDS011;6856;51.460;7.158;2022-12-18T13:06:16;6.10;;;3.93;;
13568;SDS011;6856;51.460;7.158;2022-12-18T13:09:03;6.47;;;4.23;;
13568;SDS011;6856;51.460;7.158;2022-12-18T13:11:38;5.57;;;3.80;;
13568;SDS011;6856;51.460;7.158;2022-12-18T13:14:34;5.60;;;3.77;;
13568;SDS011;6856;51.460;7.158;2022-12-18T13:17:29;6.43;;;4.57;;
13568;SDS011;6856;51.460;7.158;2022-12-18T13:20:18;5.03;;;3.83;;
13568;SDS011;6856;51.460;7.158;2022-12-18T13:22:52;5.63;;;4.37;;
13568;SDS011;6856;51.460;7.158;2022-12-18T13:25:34;6.33;;;4.50;;
13568;SDS011;6856;51.460;7.158;2022-12-18T13:28:10;6.87;;;4.60;;
13568;SDS011;6856;51.460;7.158;2022-12-18T13:30:53;5.73;;;4.37;;
13568;SDS011;6856;51.460;7.158;2022-12-18T13:36:45;6.43;;;4.50;;
13568;SDS011;6856;51.460;7.158;2022-12-18T13:39:23;6.53;;;4.47;;
13568;SDS011;6856;51.460;7.158;2022-12-18T13:45:41;6.13;;;4.37;;
13568;SDS011;6856;51.460;7.158;2022-12-18T13:48:23;6.40;;;4.27;;
13568;SDS011;6856;51.460;7.158;2022-12-18T13:51:00;8.03;;;4.77;;
13568;SDS011;6856;51.460;7.158;2022-12-18T13:53:42;7.83;;;5.13;;
13568;SDS011;6856;51.460;7.158;2022-12-18T13:56:22;5.93;;;4.87;;
13568;SDS011;6856;51.460;7.158;2022-12-18T13:59:03;6.97;;;4.57;;
13568;SDS011;6856;51.460;7.158;2022-12-18T14:01:57;7.33;;;5.17;;
13568;SDS011;6856;51.460;7.158;2022-12-18T14:04:35;7.87;;;5.20;;
13568;SDS011;6856;51.460;7.158;2022-12-18T14:07:10;6.93;;;4.67;;
13568;SDS011;6856;51.460;7.158;2022-12-18T14:09:53;7.57;;;5.60;;
13568;SDS011;6856;51.460;7.158;2022-12-18T14:12:50;6.60;;;5.23;;
13568;SDS011;6856;51.460;7.158;2022-12-18T14:15:35;7.30;;;5.13;;
13568;SDS011;6856;51.460;7.158;2022-12-18T14:18:17;8.20;;;5.57;;
13568;SDS011;6856;51.460;7.158;2022-12-18T14:20:56;8.37;;;5.57;;
13568;SDS011;6856;51.460;7.158;2022-12-18T14:23:34;7.67;;;6.03;;
13568;SDS011;6856;51.460;7.158;2022-12-18T14:26:21;7.87;;;5.87;;
13568;SDS011;6856;51.460;7.158;2022-12-18T14:29:01;8.70;;;6.47;;
13568;SDS011;6856;51.460;7.158;2022-12-18T14:32:04;7.23;;;5.80;;
13568;SDS011;6856;51.460;7.158;2022-12-18T14:34:48;8.60;;;6.37;;
13568;SDS011;6856;51.460;7.158;2022-12-18T14:37:25;7.17;;;5.90;;
13568;SDS011;6856;51.460;7.158;2022-12-18T14:40:11;8.13;;;6.23;;
13568;SDS011;6856;51.460;7.158;2022-12-18T14:42:48;7.50;;;5.97;;
13568;SDS011;6856;51.460;7.158;2022-12-18T14:48:19;7.73;;;5.93;;
13568;SDS011;6856;51.460;7.158;2022-12-18T14:50:58;8.23;;;5.93;;
13568;SDS011;6856;51.460;7.158;2022-12-18T14:53:37;8.87;;;6.13;;
13568;SDS011;6856;51.460;7.158;2022-12-18T14:56:23;8.17;;;6.27;;
13568;SDS011;6856;51.460;7.158;2022-12-18T14:59:01;8.57;;;6.57;;
13568;SDS011;6856;51.460;7.158;2022-12-18T15:01:38;8.97;;;6.53;;
13568;SDS011;6856;51.460;7.158;2022-12-18T15:04:24;10.50;;;7.73;;
13568;SDS011;6856;51.460;7.158;2022-12-18T15:07:05;8.10;;;6.80;;
13568;SDS011;6856;51.460;7.158;2022-12-18T15:10:00;7.97;;;6.33;;
13568;SDS011;6856;51.460;7.158;2022-12-18T15:12:43;10.87;;;7.47;;
13568;SDS011;6856;51.460;7.158;2022-12-18T15:18:29;9.73;;;6.73;;
13568;SDS011;6856;51.460;7.158;2022-12-18T15:21:08;9.27;;;6.30;;
13568;SDS011;6856;51.460;7.158;2022-12-18T15:23:50;9.93;;;7.20;;
13568;SDS011;6856;51.460;7.158;2022-12-18T15:26:25;9.13;;;6.87;;
13568;SDS011;6856;51.460;7.158;2022-12-18T15:29:15;9.47;;;6.97;;
13568;SDS011;6856;51.460;7.158;2022-12-18T15:32:15;9.47;;;7.37;;
13568;SDS011;6856;51.460;7.158;2022-12-18T15:35:01;9.93;;;6.60;;
13568;SDS011;6856;51.460;7.158;2022-12-18T15:37:44;9.20;;;6.47;;
13568;SDS011;6856;51.460;7.158;2022-12-18T15:40:19;9.67;;;6.70;;
13568;SDS011;6856;51.460;7.158;2022-12-18T15:42:55;9.83;;;7.10;;
13568;SDS011;6856;51.460;7.158;2022-12-18T15:45:47;10.03;;;7.13;;
13568;SDS011;6856;51.460;7.158;2022-12-18T15:48:23;10.13;;;7.30;;
13568;SDS011;6856;51.460;7.158;2022-12-18T15:50:56;9.83;;;7.30;;
13568;SDS011;6856;51.460;7.158;2022-12-18T15:53:32;9.63;;;7.07;;
13568;SDS011;6856;51.460;7.158;2022-12-18T15:56:07;9.50;;;7.17;;
13568;SDS011;6856;51.460;7.158;2022-12-18T15:59:01;11.37;;;7.50;;
13568;SDS011;6856;51.460;7.158;2022-12-18T16:01:41;10.07;;;7.77;;
13568;SDS011;6856;51.460;7.158;2022-12-18T16:04:21;11.07;;;8.07;;
13568;SDS011;6856;51.460;7.158;2022-12-18T16:06:56;11.10;;;8.33;;
13568;SDS011;6856;51.460;7.158;2022-12-18T16:09:48;10.77;;;8.13;;
13568;SDS011;6856;51.460;7.158;2022-12-18T16:12:22;10.07;;;7.80;;
13568;SDS011;6856;51.460;7.158;2022-12-18T16:14:57;10.10;;;7.77;;
13568;SDS011;6856;51.460;7.158;2022-12-18T16:17:31;10.20;;;7.83;;
13568;SDS011;6856;51.460;7.158;2022-12-18T16:20:07;11.83;;;8.60;;
13568;SDS011;6856;51.460;7.158;2022-12-18T16:22:46;11.90;;;8.67;;
13568;SDS011;6856;51.460;7.158;2022-12-18T16:25:21;11.20;;;8.33;;
13568;SDS011;6856;51.460;7.158;2022-12-18T16:27:58;13.57;;;9.03;;
13568;SDS011;6856;51.460;7.158;2022-12-18T16:30:35;11.67;;;9.10;;